Weather at Brunei International Airport

Public forecast

Using degrees Celsius for public forecast. Weather courtesy of forecast.io.

Current aviation weather report (METAR) for Brunei International Airport

Report is more than 6 hours old.

2022/11/14 15:30 (retrieved 2 years ago)

WBSB 141530Z 20005KT 9999 FEW004 SCT014 BKN140 25/25 Q1010 RERA NOSIG

Aviation forecast (TAF) for Brunei International Airport

Forecast is more than 12 hours old.

2023/02/22 18:09 (retrieved 1 year ago)

TAF WBSB 221700Z 2218/2400 18004KT 9999 FEW015 BECMG 2303/2305 33007KT FEW016